sensor_id;sensor_type;location;lat;lon;timestamp;P1;durP1;ratioP1;P2;durP2;ratioP2
21729;SDS011;11027;51.030;13.812;2023-03-07T00:01:01;18.92;;;12.32;;
21729;SDS011;11027;51.030;13.812;2023-03-07T00:03:27;19.33;;;12.77;;
21729;SDS011;11027;51.030;13.812;2023-03-07T00:06:02;18.33;;;12.27;;
21729;SDS011;11027;51.030;13.812;2023-03-07T00:08:30;18.63;;;12.70;;
21729;SDS011;11027;51.030;13.812;2023-03-07T00:10:58;18.45;;;12.60;;
21729;SDS011;11027;51.030;13.812;2023-03-07T00:13:29;19.83;;;12.55;;
21729;SDS011;11027;51.030;13.812;2023-03-07T00:15:59;19.45;;;12.55;;
21729;SDS011;11027;51.030;13.812;2023-03-07T00:18:28;21.63;;;13.18;;
21729;SDS011;11027;51.030;13.812;2023-03-07T00:21:01;19.35;;;13.13;;
21729;SDS011;11027;51.030;13.812;2023-03-07T00:23:30;17.80;;;12.23;;
21729;SDS011;11027;51.030;13.812;2023-03-07T00:26:00;20.52;;;13.68;;
21729;SDS011;11027;51.030;13.812;2023-03-07T00:28:27;19.27;;;12.93;;
21729;SDS011;11027;51.030;13.812;2023-03-07T00:30:52;22.15;;;13.32;;
21729;SDS011;11027;51.030;13.812;2023-03-07T00:33:18;17.45;;;11.80;;
21729;SDS011;11027;51.030;13.812;2023-03-07T00:35:43;19.55;;;12.98;;
21729;SDS011;11027;51.030;13.812;2023-03-07T00:38:09;20.55;;;13.40;;
21729;SDS011;11027;51.030;13.812;2023-03-07T00:40:34;21.15;;;13.25;;
21729;SDS011;11027;51.030;13.812;2023-03-07T00:42:59;19.20;;;12.52;;
21729;SDS011;11027;51.030;13.812;2023-03-07T00:45:24;18.90;;;12.45;;
21729;SDS011;11027;51.030;13.812;2023-03-07T00:47:49;18.63;;;12.25;;
21729;SDS011;11027;51.030;13.812;2023-03-07T00:50:15;20.15;;;12.82;;
21729;SDS011;11027;51.030;13.812;2023-03-07T00:52:40;21.85;;;13.77;;
21729;SDS011;11027;51.030;13.812;2023-03-07T00:55:06;19.55;;;13.23;;
21729;SDS011;11027;51.030;13.812;2023-03-07T00:57:31;18.52;;;12.82;;
21729;SDS011;11027;51.030;13.812;2023-03-07T00:59:57;23.30;;;14.50;;
21729;SDS011;11027;51.030;13.812;2023-03-07T01:02:22;20.10;;;13.15;;
21729;SDS011;11027;51.030;13.812;2023-03-07T01:04:47;21.77;;;14.15;;
21729;SDS011;11027;51.030;13.812;2023-03-07T01:07:12;20.73;;;13.93;;
21729;SDS011;11027;51.030;13.812;2023-03-07T01:09:37;23.27;;;14.48;;
21729;SDS011;11027;51.030;13.812;2023-03-07T01:12:03;21.27;;;13.43;;
21729;SDS011;11027;51.030;13.812;2023-03-07T01:14:31;21.00;;;13.50;;
21729;SDS011;11027;51.030;13.812;2023-03-07T01:16:56;20.48;;;13.55;;
21729;SDS011;11027;51.030;13.812;2023-03-07T01:19:21;19.88;;;13.15;;
21729;SDS011;11027;51.030;13.812;2023-03-07T01:21:48;21.02;;;13.50;;
21729;SDS011;11027;51.030;13.812;2023-03-07T01:24:13;21.08;;;13.20;;
21729;SDS011;11027;51.030;13.812;2023-03-07T01:26:39;21.10;;;13.32;;
21729;SDS011;11027;51.030;13.812;2023-03-07T01:29:05;21.95;;;13.65;;
21729;SDS011;11027;51.030;13.812;2023-03-07T01:31:30;20.77;;;13.35;;
21729;SDS011;11027;51.030;13.812;2023-03-07T01:33:56;22.52;;;13.93;;
21729;SDS011;11027;51.030;13.812;2023-03-07T01:36:23;21.70;;;13.43;;
21729;SDS011;11027;51.030;13.812;2023-03-07T01:38:54;21.60;;;13.10;;
21729;SDS011;11027;51.030;13.812;2023-03-07T01:41:20;22.75;;;13.38;;
21729;SDS011;11027;51.030;13.812;2023-03-07T01:43:46;21.15;;;13.20;;
21729;SDS011;11027;51.030;13.812;2023-03-07T01:48:49;17.80;;;10.27;;
21729;SDS011;11027;51.030;13.812;2023-03-07T01:51:18;21.52;;;13.48;;
21729;SDS011;11027;51.030;13.812;2023-03-07T01:53:44;20.10;;;13.00;;
21729;SDS011;11027;51.030;13.812;2023-03-07T01:56:09;18.77;;;12.77;;
21729;SDS011;11027;51.030;13.812;2023-03-07T01:58:35;20.77;;;12.73;;
21729;SDS011;11027;51.030;13.812;2023-03-07T02:01:03;18.98;;;12.80;;
21729;SDS011;11027;51.030;13.812;2023-03-07T02:03:32;18.90;;;13.05;;
21729;SDS011;11027;51.030;13.812;2023-03-07T02:06:03;20.20;;;13.35;;
21729;SDS011;11027;51.030;13.812;2023-03-07T02:10:59;20.33;;;12.85;;
21729;SDS011;11027;51.030;13.812;2023-03-07T02:13:25;19.67;;;12.90;;
21729;SDS011;11027;51.030;13.812;2023-03-07T02:15:50;20.67;;;13.48;;
21729;SDS011;11027;51.030;13.812;2023-03-07T02:18:17;19.65;;;12.90;;
21729;SDS011;11027;51.030;13.812;2023-03-07T02:20:54;20.70;;;13.10;;
21729;SDS011;11027;51.030;13.812;2023-03-07T02:26:48;19.83;;;12.60;;
21729;SDS011;11027;51.030;13.812;2023-03-07T02:29:16;20.17;;;13.05;;
21729;SDS011;11027;51.030;13.812;2023-03-07T02:31:41;19.05;;;12.07;;
21729;SDS011;11027;51.030;13.812;2023-03-07T02:34:19;18.85;;;11.98;;
21729;SDS011;11027;51.030;13.812;2023-03-07T02:36:47;18.83;;;12.48;;
21729;SDS011;11027;51.030;13.812;2023-03-07T02:39:17;18.15;;;12.48;;
21729;SDS011;11027;51.030;13.812;2023-03-07T02:41:45;20.45;;;12.88;;
21729;SDS011;11027;51.030;13.812;2023-03-07T02:44:12;19.45;;;12.68;;
21729;SDS011;11027;51.030;13.812;2023-03-07T02:46:37;21.15;;;13.25;;
21729;SDS011;11027;51.030;13.812;2023-03-07T02:49:02;21.92;;;12.93;;
21729;SDS011;11027;51.030;13.812;2023-03-07T02:51:28;19.75;;;12.25;;
21729;SDS011;11027;51.030;13.812;2023-03-07T02:53:53;20.20;;;12.55;;
21729;SDS011;11027;51.030;13.812;2023-03-07T02:56:18;19.65;;;12.20;;
21729;SDS011;11027;51.030;13.812;2023-03-07T02:58:43;21.50;;;13.48;;
21729;SDS011;11027;51.030;13.812;2023-03-07T03:01:09;20.02;;;13.27;;
21729;SDS011;11027;51.030;13.812;2023-03-07T03:03:34;19.00;;;12.95;;
21729;SDS011;11027;51.030;13.812;2023-03-07T03:06:00;24.35;;;13.65;;
21729;SDS011;11027;51.030;13.812;2023-03-07T03:08:25;18.27;;;12.73;;
21729;SDS011;11027;51.030;13.812;2023-03-07T03:10:51;18.40;;;12.85;;
21729;SDS011;11027;51.030;13.812;2023-03-07T03:13:17;22.05;;;13.77;;
21729;SDS011;11027;51.030;13.812;2023-03-07T03:15:44;18.95;;;12.60;;
21729;SDS011;11027;51.030;13.812;2023-03-07T03:18:09;19.33;;;13.15;;
21729;SDS011;11027;51.030;13.812;2023-03-07T03:20:37;21.00;;;12.90;;
21729;SDS011;11027;51.030;13.812;2023-03-07T03:23:03;21.45;;;13.18;;
21729;SDS011;11027;51.030;13.812;2023-03-07T03:25:28;23.40;;;13.90;;
21729;SDS011;11027;51.030;13.812;2023-03-07T03:27:53;19.85;;;13.45;;
21729;SDS011;11027;51.030;13.812;2023-03-07T03:30:19;19.52;;;13.02;;
21729;SDS011;11027;51.030;13.812;2023-03-07T03:32:44;21.40;;;13.65;;
21729;SDS011;11027;51.030;13.812;2023-03-07T03:35:11;20.75;;;13.32;;
21729;SDS011;11027;51.030;13.812;2023-03-07T03:37:36;21.90;;;13.60;;
21729;SDS011;11027;51.030;13.812;2023-03-07T03:40:01;19.58;;;13.05;;
21729;SDS011;11027;51.030;13.812;2023-03-07T03:42:30;22.58;;;13.60;;
21729;SDS011;11027;51.030;13.812;2023-03-07T03:44:55;19.50;;;13.38;;
21729;SDS011;11027;51.030;13.812;2023-03-07T03:47:20;19.48;;;13.00;;
21729;SDS011;11027;51.030;13.812;2023-03-07T03:49:46;20.27;;;12.60;;
21729;SDS011;11027;51.030;13.812;2023-03-07T03:52:11;19.30;;;12.80;;
21729;SDS011;11027;51.030;13.812;2023-03-07T03:54:36;19.63;;;12.68;;
21729;SDS011;11027;51.030;13.812;2023-03-07T03:57:02;18.02;;;12.07;;
21729;SDS011;11027;51.030;13.812;2023-03-07T03:59:27;16.83;;;11.75;;
21729;SDS011;11027;51.030;13.812;2023-03-07T04:01:53;18.48;;;12.45;;
21729;SDS011;11027;51.030;13.812;2023-03-07T04:04:19;17.95;;;12.02;;
21729;SDS011;11027;51.030;13.812;2023-03-07T04:06:44;19.17;;;13.02;;
21729;SDS011;11027;51.030;13.812;2023-03-07T04:09:09;17.88;;;11.85;;
21729;SDS011;11027;51.030;13.812;2023-03-07T04:11:35;19.38;;;12.75;;
21729;SDS011;11027;51.030;13.812;2023-03-07T04:14:00;18.65;;;12.68;;
21729;SDS011;11027;51.030;13.812;2023-03-07T04:16:26;19.63;;;12.40;;
21729;SDS011;11027;51.030;13.812;2023-03-07T04:18:52;19.02;;;12.27;;
21729;SDS011;11027;51.030;13.812;2023-03-07T04:21:18;19.88;;;12.55;;
21729;SDS011;11027;51.030;13.812;2023-03-07T04:23:44;18.85;;;12.30;;
21729;SDS011;11027;51.030;13.812;2023-03-07T04:26:10;19.40;;;12.20;;
21729;SDS011;11027;51.030;13.812;2023-03-07T04:28:36;18.52;;;12.02;;
21729;SDS011;11027;51.030;13.812;2023-03-07T04:31:10;19.52;;;12.75;;
21729;SDS011;11027;51.030;13.812;2023-03-07T04:33:43;19.50;;;12.98;;
21729;SDS011;11027;51.030;13.812;2023-03-07T04:36:10;18.00;;;12.57;;
21729;SDS011;11027;51.030;13.812;2023-03-07T04:38:35;19.98;;;12.68;;
21729;SDS011;11027;51.030;13.812;2023-03-07T04:41:03;18.52;;;12.13;;
21729;SDS011;11027;51.030;13.812;2023-03-07T04:43:31;18.92;;;12.20;;
21729;SDS011;11027;51.030;13.812;2023-03-07T04:45:56;17.83;;;12.20;;
21729;SDS011;11027;51.030;13.812;2023-03-07T04:48:22;21.83;;;12.45;;
21729;SDS011;11027;51.030;13.812;2023-03-07T04:50:48;17.55;;;11.98;;
21729;SDS011;11027;51.030;13.812;2023-03-07T04:53:14;17.52;;;12.35;;
21729;SDS011;11027;51.030;13.812;2023-03-07T04:55:40;19.48;;;13.00;;
21729;SDS011;11027;51.030;13.812;2023-03-07T04:58:05;17.55;;;12.82;;
21729;SDS011;11027;51.030;13.812;2023-03-07T05:00:34;18.17;;;12.20;;
21729;SDS011;11027;51.030;13.812;2023-03-07T05:03:00;20.52;;;13.63;;
21729;SDS011;11027;51.030;13.812;2023-03-07T05:05:26;19.65;;;13.80;;
21729;SDS011;11027;51.030;13.812;2023-03-07T05:07:51;20.80;;;13.45;;
21729;SDS011;11027;51.030;13.812;2023-03-07T05:10:16;19.20;;;13.93;;
21729;SDS011;11027;51.030;13.812;2023-03-07T05:12:42;19.08;;;13.55;;
21729;SDS011;11027;51.030;13.812;2023-03-07T05:15:07;19.52;;;13.13;;
21729;SDS011;11027;51.030;13.812;2023-03-07T05:17:33;20.77;;;14.30;;
21729;SDS011;11027;51.030;13.812;2023-03-07T05:19:58;19.50;;;13.80;;
21729;SDS011;11027;51.030;13.812;2023-03-07T05:22:23;20.95;;;13.80;;
21729;SDS011;11027;51.030;13.812;2023-03-07T05:24:48;21.02;;;14.13;;
21729;SDS011;11027;51.030;13.812;2023-03-07T05:27:14;21.63;;;14.68;;
21729;SDS011;11027;51.030;13.812;2023-03-07T05:29:40;20.77;;;14.60;;
21729;SDS011;11027;51.030;13.812;2023-03-07T05:32:05;19.63;;;13.35;;
21729;SDS011;11027;51.030;13.812;2023-03-07T05:34:31;20.23;;;13.93;;
21729;SDS011;11027;51.030;13.812;2023-03-07T05:36:56;20.67;;;13.88;;
21729;SDS011;11027;51.030;13.812;2023-03-07T05:39:22;20.20;;;13.65;;
21729;SDS011;11027;51.030;13.812;2023-03-07T05:41:48;18.98;;;12.23;;
21729;SDS011;11027;51.030;13.812;2023-03-07T05:44:13;18.85;;;12.60;;
21729;SDS011;11027;51.030;13.812;2023-03-07T05:46:38;18.40;;;13.05;;
21729;SDS011;11027;51.030;13.812;2023-03-07T05:49:04;18.27;;;12.13;;
21729;SDS011;11027;51.030;13.812;2023-03-07T05:51:29;16.50;;;11.43;;
21729;SDS011;11027;51.030;13.812;2023-03-07T05:53:54;18.70;;;12.40;;
21729;SDS011;11027;51.030;13.812;2023-03-07T05:56:19;16.85;;;11.05;;
21729;SDS011;11027;51.030;13.812;2023-03-07T05:58:45;16.88;;;11.18;;
21729;SDS011;11027;51.030;13.812;2023-03-07T06:01:10;16.27;;;10.95;;
21729;SDS011;11027;51.030;13.812;2023-03-07T06:03:35;15.52;;;10.80;;
21729;SDS011;11027;51.030;13.812;2023-03-07T06:06:00;15.98;;;11.38;;
21729;SDS011;11027;51.030;13.812;2023-03-07T06:08:26;15.80;;;10.63;;
21729;SDS011;11027;51.030;13.812;2023-03-07T06:10:51;17.35;;;11.40;;
21729;SDS011;11027;51.030;13.812;2023-03-07T06:13:18;16.10;;;11.63;;
21729;SDS011;11027;51.030;13.812;2023-03-07T06:15:47;19.63;;;11.68;;
21729;SDS011;11027;51.030;13.812;2023-03-07T06:18:13;18.55;;;11.05;;
21729;SDS011;11027;51.030;13.812;2023-03-07T06:20:39;17.15;;;11.10;;
21729;SDS011;11027;51.030;13.812;2023-03-07T06:23:04;17.50;;;11.75;;
21729;SDS011;11027;51.030;13.812;2023-03-07T06:25:29;15.68;;;10.15;;
21729;SDS011;11027;51.030;13.812;2023-03-07T06:27:54;17.15;;;10.82;;
21729;SDS011;11027;51.030;13.812;2023-03-07T06:30:24;15.85;;;10.63;;
21729;SDS011;11027;51.030;13.812;2023-03-07T06:32:50;14.90;;;9.13;;
21729;SDS011;11027;51.030;13.812;2023-03-07T06:35:15;13.50;;;9.60;;
21729;SDS011;11027;51.030;13.812;2023-03-07T06:37:40;15.00;;;9.60;;
21729;SDS011;11027;51.030;13.812;2023-03-07T06:40:06;11.88;;;8.77;;
21729;SDS011;11027;51.030;13.812;2023-03-07T06:42:33;14.65;;;8.68;;
21729;SDS011;11027;51.030;13.812;2023-03-07T06:44:58;12.60;;;8.48;;
21729;SDS011;11027;51.030;13.812;2023-03-07T06:47:24;13.18;;;9.25;;
21729;SDS011;11027;51.030;13.812;2023-03-07T06:49:49;14.73;;;9.02;;
21729;SDS011;11027;51.030;13.812;2023-03-07T06:52:14;15.25;;;8.90;;
21729;SDS011;11027;51.030;13.812;2023-03-07T06:54:40;15.30;;;8.70;;
21729;SDS011;11027;51.030;13.812;2023-03-07T06:57:05;12.98;;;8.35;;
21729;SDS011;11027;51.030;13.812;2023-03-07T06:59:30;13.73;;;8.98;;
21729;SDS011;11027;51.030;13.812;2023-03-07T07:01:55;11.65;;;8.20;;
21729;SDS011;11027;51.030;13.812;2023-03-07T07:04:21;12.85;;;9.00;;
21729;SDS011;11027;51.030;13.812;2023-03-07T07:06:46;12.23;;;7.97;;
21729;SDS011;11027;51.030;13.812;2023-03-07T07:09:11;10.95;;;8.13;;
21729;SDS011;11027;51.030;13.812;2023-03-07T07:11:37;9.68;;;7.43;;
21729;SDS011;11027;51.030;13.812;2023-03-07T07:14:02;12.25;;;8.32;;
21729;SDS011;11027;51.030;13.812;2023-03-07T07:16:28;11.40;;;7.80;;
21729;SDS011;11027;51.030;13.812;2023-03-07T07:18:53;12.15;;;8.15;;
21729;SDS011;11027;51.030;13.812;2023-03-07T07:21:19;11.70;;;7.82;;
21729;SDS011;11027;51.030;13.812;2023-03-07T07:23:44;10.65;;;7.80;;
21729;SDS011;11027;51.030;13.812;2023-03-07T07:26:10;12.85;;;8.40;;
21729;SDS011;11027;51.030;13.812;2023-03-07T07:28:36;10.80;;;7.93;;
21729;SDS011;11027;51.030;13.812;2023-03-07T07:31:01;12.95;;;8.55;;
21729;SDS011;11027;51.030;13.812;2023-03-07T07:33:27;12.20;;;7.47;;
21729;SDS011;11027;51.030;13.812;2023-03-07T07:35:53;10.43;;;7.53;;
21729;SDS011;11027;51.030;13.812;2023-03-07T07:38:18;10.18;;;7.35;;
21729;SDS011;11027;51.030;13.812;2023-03-07T07:40:43;11.82;;;7.68;;
21729;SDS011;11027;51.030;13.812;2023-03-07T07:43:12;10.50;;;7.20;;
21729;SDS011;11027;51.030;13.812;2023-03-07T07:45:39;10.70;;;7.30;;
21729;SDS011;11027;51.030;13.812;2023-03-07T07:48:04;10.73;;;7.90;;
21729;SDS011;11027;51.030;13.812;2023-03-07T07:50:29;11.85;;;7.40;;
21729;SDS011;11027;51.030;13.812;2023-03-07T07:52:55;10.85;;;7.00;;
21729;SDS011;11027;51.030;13.812;2023-03-07T07:55:20;11.35;;;6.85;;
21729;SDS011;11027;51.030;13.812;2023-03-07T07:57:45;10.35;;;6.97;;
21729;SDS011;11027;51.030;13.812;2023-03-07T08:00:11;9.85;;;6.82;;
21729;SDS011;11027;51.030;13.812;2023-03-07T08:02:37;9.00;;;6.47;;
21729;SDS011;11027;51.030;13.812;2023-03-07T08:05:05;9.38;;;7.28;;
21729;SDS011;11027;51.030;13.812;2023-03-07T08:07:31;8.55;;;6.90;;
21729;SDS011;11027;51.030;13.812;2023-03-07T08:09:56;15.68;;;10.20;;
21729;SDS011;11027;51.030;13.812;2023-03-07T08:12:22;9.43;;;6.75;;
21729;SDS011;11027;51.030;13.812;2023-03-07T08:14:47;8.15;;;6.30;;
21729;SDS011;11027;51.030;13.812;2023-03-07T08:17:12;8.95;;;6.65;;
21729;SDS011;11027;51.030;13.812;2023-03-07T08:19:37;8.88;;;6.10;;
21729;SDS011;11027;51.030;13.812;2023-03-07T08:22:03;8.90;;;6.30;;
21729;SDS011;11027;51.030;13.812;2023-03-07T08:24:28;9.18;;;5.95;;
21729;SDS011;11027;51.030;13.812;2023-03-07T08:26:54;7.60;;;5.85;;
21729;SDS011;11027;51.030;13.812;2023-03-07T08:29:19;8.68;;;6.10;;
21729;SDS011;11027;51.030;13.812;2023-03-07T08:31:45;8.15;;;6.18;;
21729;SDS011;11027;51.030;13.812;2023-03-07T08:34:13;7.05;;;5.80;;
21729;SDS011;11027;51.030;13.812;2023-03-07T08:36:38;7.82;;;5.75;;
21729;SDS011;11027;51.030;13.812;2023-03-07T08:39:03;8.07;;;5.65;;
21729;SDS011;11027;51.030;13.812;2023-03-07T08:41:29;6.15;;;5.05;;
21729;SDS011;11027;51.030;13.812;2023-03-07T08:43:54;7.22;;;5.22;;
21729;SDS011;11027;51.030;13.812;2023-03-07T08:46:19;7.80;;;6.00;;
21729;SDS011;11027;51.030;13.812;2023-03-07T08:48:45;7.25;;;4.97;;
21729;SDS011;11027;51.030;13.812;2023-03-07T08:51:11;7.03;;;5.53;;
21729;SDS011;11027;51.030;13.812;2023-03-07T08:53:39;6.18;;;5.05;;
21729;SDS011;11027;51.030;13.812;2023-03-07T08:56:07;6.40;;;5.28;;
21729;SDS011;11027;51.030;13.812;2023-03-07T08:58:33;7.68;;;5.28;;
21729;SDS011;11027;51.030;13.812;2023-03-07T09:00:59;5.72;;;4.68;;
21729;SDS011;11027;51.030;13.812;2023-03-07T09:03:24;5.60;;;4.47;;
21729;SDS011;11027;51.030;13.812;2023-03-07T09:05:49;4.82;;;3.97;;
21729;SDS011;11027;51.030;13.812;2023-03-07T09:08:14;5.70;;;4.50;;
21729;SDS011;11027;51.030;13.812;2023-03-07T09:10:40;4.95;;;3.72;;
21729;SDS011;11027;51.030;13.812;2023-03-07T09:13:05;4.65;;;3.92;;
21729;SDS011;11027;51.030;13.812;2023-03-07T09:15:30;4.68;;;4.00;;
21729;SDS011;11027;51.030;13.812;2023-03-07T09:17:55;5.40;;;4.03;;
21729;SDS011;11027;51.030;13.812;2023-03-07T09:20:21;4.47;;;3.67;;
21729;SDS011;11027;51.030;13.812;2023-03-07T09:22:46;5.00;;;3.80;;
21729;SDS011;11027;51.030;13.812;2023-03-07T09:25:12;4.95;;;3.75;;
21729;SDS011;11027;51.030;13.812;2023-03-07T09:27:37;6.30;;;3.95;;
21729;SDS011;11027;51.030;13.812;2023-03-07T09:30:03;4.97;;;3.55;;
21729;SDS011;11027;51.030;13.812;2023-03-07T09:32:30;4.75;;;3.70;;
21729;SDS011;11027;51.030;13.812;2023-03-07T09:34:56;5.22;;;3.80;;
21729;SDS011;11027;51.030;13.812;2023-03-07T09:37:22;4.53;;;3.70;;
21729;SDS011;11027;51.030;13.812;2023-03-07T09:39:48;5.07;;;3.78;;
21729;SDS011;11027;51.030;13.812;2023-03-07T09:48:14;4.78;;;3.72;;
21729;SDS011;11027;51.030;13.812;2023-03-07T09:51:00;4.35;;;3.67;;
21729;SDS011;11027;51.030;13.812;2023-03-07T09:56:23;4.70;;;3.92;;
21729;SDS011;11027;51.030;13.812;2023-03-07T09:58:56;7.78;;;4.10;;
21729;SDS011;11027;51.030;13.812;2023-03-07T10:01:29;4.85;;;3.92;;
21729;SDS011;11027;51.030;13.812;2023-03-07T10:03:59;4.07;;;3.65;;
21729;SDS011;11027;51.030;13.812;2023-03-07T10:06:28;4.72;;;4.22;;
21729;SDS011;11027;51.030;13.812;2023-03-07T10:09:03;4.65;;;3.72;;
21729;SDS011;11027;51.030;13.812;2023-03-07T10:11:39;5.78;;;4.40;;
21729;SDS011;11027;51.030;13.812;2023-03-07T10:17:30;4.82;;;4.20;;
21729;SDS011;11027;51.030;13.812;2023-03-07T10:20:06;5.45;;;4.68;;
21729;SDS011;11027;51.030;13.812;2023-03-07T10:25:47;4.80;;;4.30;;
21729;SDS011;11027;51.030;13.812;2023-03-07T10:28:26;4.95;;;4.45;;
21729;SDS011;11027;51.030;13.812;2023-03-07T10:31:00;5.90;;;4.80;;
21729;SDS011;11027;51.030;13.812;2023-03-07T10:33:46;6.20;;;4.93;;
21729;SDS011;11027;51.030;13.812;2023-03-07T10:39:38;6.07;;;4.80;;
21729;SDS011;11027;51.030;13.812;2023-03-07T10:42:13;7.73;;;5.07;;
21729;SDS011;11027;51.030;13.812;2023-03-07T10:44:41;6.43;;;4.60;;
21729;SDS011;11027;51.030;13.812;2023-03-07T10:47:09;7.07;;;5.22;;
21729;SDS011;11027;51.030;13.812;2023-03-07T10:49:44;6.13;;;4.60;;
21729;SDS011;11027;51.030;13.812;2023-03-07T10:52:28;5.75;;;5.15;;
21729;SDS011;11027;51.030;13.812;2023-03-07T10:58:11;6.10;;;4.68;;
21729;SDS011;11027;51.030;13.812;2023-03-07T11:00:37;6.55;;;4.95;;
21729;SDS011;11027;51.030;13.812;2023-03-07T11:03:02;5.25;;;4.35;;
21729;SDS011;11027;51.030;13.812;2023-03-07T11:05:29;8.32;;;5.25;;
21729;SDS011;11027;51.030;13.812;2023-03-07T11:07:57;5.47;;;4.55;;
21729;SDS011;11027;51.030;13.812;2023-03-07T11:10:30;5.72;;;4.63;;
21729;SDS011;11027;51.030;13.812;2023-03-07T11:13:05;5.90;;;4.55;;
21729;SDS011;11027;51.030;13.812;2023-03-07T11:15:37;5.65;;;4.68;;
21729;SDS011;11027;51.030;13.812;2023-03-07T11:18:03;5.47;;;4.80;;
21729;SDS011;11027;51.030;13.812;2023-03-07T11:20:29;5.97;;;4.60;;
21729;SDS011;11027;51.030;13.812;2023-03-07T11:23:21;4.57;;;3.90;;
21729;SDS011;11027;51.030;13.812;2023-03-07T11:25:50;5.55;;;4.85;;
21729;SDS011;11027;51.030;13.812;2023-03-07T11:28:30;5.30;;;4.18;;
21729;SDS011;11027;51.030;13.812;2023-03-07T11:33:55;6.05;;;4.40;;
21729;SDS011;11027;51.030;13.812;2023-03-07T11:36:29;5.95;;;4.18;;
21729;SDS011;11027;51.030;13.812;2023-03-07T11:41:52;5.57;;;4.32;;
21729;SDS011;11027;51.030;13.812;2023-03-07T11:44:26;6.13;;;4.70;;
21729;SDS011;11027;51.030;13.812;2023-03-07T11:55:45;7.32;;;4.60;;
21729;SDS011;11027;51.030;13.812;2023-03-07T12:17:56;6.35;;;4.43;;
21729;SDS011;11027;51.030;13.812;2023-03-07T12:20:43;5.75;;;4.38;;
21729;SDS011;11027;51.030;13.812;2023-03-07T12:23:32;5.07;;;4.57;;
21729;SDS011;11027;51.030;13.812;2023-03-07T12:28:47;6.70;;;4.97;;
21729;SDS011;11027;51.030;13.812;2023-03-07T12:31:23;5.18;;;4.20;;
21729;SDS011;11027;51.030;13.812;2023-03-07T12:39:30;7.82;;;4.50;;
21729;SDS011;11027;51.030;13.812;2023-03-07T12:45:15;7.55;;;4.53;;
21729;SDS011;11027;51.030;13.812;2023-03-07T12:50:34;6.25;;;4.00;;
21729;SDS011;11027;51.030;13.812;2023-03-07T12:53:16;5.82;;;4.30;;
21729;SDS011;11027;51.030;13.812;2023-03-07T12:58:46;6.18;;;4.55;;
21729;SDS011;11027;51.030;13.812;2023-03-07T13:01:27;6.22;;;4.70;;
21729;SDS011;11027;51.030;13.812;2023-03-07T13:06:21;6.97;;;4.27;;
21729;SDS011;11027;51.030;13.812;2023-03-07T13:08:48;4.93;;;4.32;;
21729;SDS011;11027;51.030;13.812;2023-03-07T13:11:22;6.30;;;4.43;;
21729;SDS011;11027;51.030;13.812;2023-03-07T13:13:51;5.38;;;4.30;;
21729;SDS011;11027;51.030;13.812;2023-03-07T13:17:06;6.07;;;4.15;;
21729;SDS011;11027;51.030;13.812;2023-03-07T13:24:43;7.30;;;4.47;;
21729;SDS011;11027;51.030;13.812;2023-03-07T13:27:14;5.55;;;4.32;;
21729;SDS011;11027;51.030;13.812;2023-03-07T13:38:00;5.97;;;4.85;;
21729;SDS011;11027;51.030;13.812;2023-03-07T13:46:06;6.28;;;4.82;;
21729;SDS011;11027;51.030;13.812;2023-03-07T13:51:19;5.45;;;4.50;;
21729;SDS011;11027;51.030;13.812;2023-03-07T13:53:47;6.20;;;4.45;;
21729;SDS011;11027;51.030;13.812;2023-03-07T14:07:08;7.10;;;4.20;;
21729;SDS011;11027;51.030;13.812;2023-03-07T14:12:31;5.70;;;4.43;;
21729;SDS011;11027;51.030;13.812;2023-03-07T14:15:27;5.95;;;4.38;;
21729;SDS011;11027;51.030;13.812;2023-03-07T14:18:03;5.50;;;4.10;;
21729;SDS011;11027;51.030;13.812;2023-03-07T14:26:15;5.20;;;4.40;;
21729;SDS011;11027;51.030;13.812;2023-03-07T14:28:47;5.13;;;3.78;;
21729;SDS011;11027;51.030;13.812;2023-03-07T14:31:25;5.20;;;4.07;;
21729;SDS011;11027;51.030;13.812;2023-03-07T14:33:53;5.00;;;3.70;;
21729;SDS011;11027;51.030;13.812;2023-03-07T14:36:22;4.35;;;3.95;;
21729;SDS011;11027;51.030;13.812;2023-03-07T14:38:48;5.65;;;4.50;;
21729;SDS011;11027;51.030;13.812;2023-03-07T14:41:24;4.60;;;3.90;;
21729;SDS011;11027;51.030;13.812;2023-03-07T14:44:18;4.75;;;4.07;;
21729;SDS011;11027;51.030;13.812;2023-03-07T14:47:18;5.93;;;3.97;;
21729;SDS011;11027;51.030;13.812;2023-03-07T14:52:42;6.40;;;3.92;;
21729;SDS011;11027;51.030;13.812;2023-03-07T14:55:30;6.30;;;4.65;;
21729;SDS011;11027;51.030;13.812;2023-03-07T14:58:00;5.43;;;3.95;;
21729;SDS011;11027;51.030;13.812;2023-03-07T15:00:26;6.10;;;3.83;;
21729;SDS011;11027;51.030;13.812;2023-03-07T15:05:32;4.53;;;3.47;;
21729;SDS011;11027;51.030;13.812;2023-03-07T15:07:59;5.63;;;4.05;;
21729;SDS011;11027;51.030;13.812;2023-03-07T15:10:29;6.38;;;3.97;;
21729;SDS011;11027;51.030;13.812;2023-03-07T15:13:01;4.90;;;3.60;;
21729;SDS011;11027;51.030;13.812;2023-03-07T15:15:33;6.20;;;4.00;;
21729;SDS011;11027;51.030;13.812;2023-03-07T15:18:05;5.97;;;3.47;;
21729;SDS011;11027;51.030;13.812;2023-03-07T15:20:42;5.93;;;3.80;;
21729;SDS011;11027;51.030;13.812;2023-03-07T15:23:15;6.55;;;3.63;;
21729;SDS011;11027;51.030;13.812;2023-03-07T15:25:45;5.97;;;3.40;;
21729;SDS011;11027;51.030;13.812;2023-03-07T15:28:22;4.35;;;3.25;;
21729;SDS011;11027;51.030;13.812;2023-03-07T15:30:51;5.50;;;3.25;;
21729;SDS011;11027;51.030;13.812;2023-03-07T15:33:21;3.90;;;3.10;;
21729;SDS011;11027;51.030;13.812;2023-03-07T15:36:07;6.82;;;3.40;;
21729;SDS011;11027;51.030;13.812;2023-03-07T15:38:41;4.30;;;2.80;;
21729;SDS011;11027;51.030;13.812;2023-03-07T15:41:26;4.20;;;3.10;;
21729;SDS011;11027;51.030;13.812;2023-03-07T15:46:35;4.22;;;2.88;;
21729;SDS011;11027;51.030;13.812;2023-03-07T15:49:04;3.85;;;2.90;;
21729;SDS011;11027;51.030;13.812;2023-03-07T15:51:33;7.82;;;3.35;;
21729;SDS011;11027;51.030;13.812;2023-03-07T15:56:56;3.70;;;3.00;;
21729;SDS011;11027;51.030;13.812;2023-03-07T15:59:28;3.70;;;3.03;;
21729;SDS011;11027;51.030;13.812;2023-03-07T16:02:23;3.80;;;3.10;;
21729;SDS011;11027;51.030;13.812;2023-03-07T16:04:54;4.55;;;3.42;;
21729;SDS011;11027;51.030;13.812;2023-03-07T16:07:20;4.15;;;3.20;;
21729;SDS011;11027;51.030;13.812;2023-03-07T16:09:45;4.90;;;3.30;;
21729;SDS011;11027;51.030;13.812;2023-03-07T16:12:11;4.28;;;3.25;;
21729;SDS011;11027;51.030;13.812;2023-03-07T16:14:37;5.60;;;3.45;;
21729;SDS011;11027;51.030;13.812;2023-03-07T16:17:05;4.72;;;3.28;;
21729;SDS011;11027;51.030;13.812;2023-03-07T16:19:41;4.28;;;3.33;;
21729;SDS011;11027;51.030;13.812;2023-03-07T16:22:16;6.53;;;3.15;;
21729;SDS011;11027;51.030;13.812;2023-03-07T16:24:43;4.20;;;3.25;;
21729;SDS011;11027;51.030;13.812;2023-03-07T16:27:11;3.92;;;3.35;;
21729;SDS011;11027;51.030;13.812;2023-03-07T16:29:40;4.47;;;3.30;;
21729;SDS011;11027;51.030;13.812;2023-03-07T16:32:07;6.35;;;4.10;;
21729;SDS011;11027;51.030;13.812;2023-03-07T16:34:36;6.55;;;3.72;;
21729;SDS011;11027;51.030;13.812;2023-03-07T16:37:01;4.57;;;3.55;;
21729;SDS011;11027;51.030;13.812;2023-03-07T16:39:26;5.32;;;3.50;;
21729;SDS011;11027;51.030;13.812;2023-03-07T16:41:51;4.10;;;3.42;;
21729;SDS011;11027;51.030;13.812;2023-03-07T16:44:17;4.63;;;3.40;;